sensor_id;sensor_type;location;lat;lon;timestamp;pressure;altitude;pressure_sealevel;temperature;humidity
35519;BME280;21627;48.216;16.482;2023-04-07T00:00:43;99839.19;;;5.75;52.61
35519;BME280;21627;48.216;16.482;2023-04-07T00:03:10;99824.50;;;5.68;51.29
35519;BME280;21627;48.216;16.482;2023-04-07T00:05:38;99841.69;;;5.73;52.20
35519;BME280;21627;48.216;16.482;2023-04-07T00:08:06;99841.06;;;5.83;51.08
35519;BME280;21627;48.216;16.482;2023-04-07T00:10:33;99828.13;;;5.77;51.36
35519;BME280;21627;48.216;16.482;2023-04-07T00:13:01;99835.72;;;5.74;52.71
35519;BME280;21627;48.216;16.482;2023-04-07T00:15:28;99831.50;;;5.76;52.44
35519;BME280;21627;48.216;16.482;2023-04-07T00:17:55;99839.09;;;5.70;51.20
35519;BME280;21627;48.216;16.482;2023-04-07T00:20:22;99836.47;;;5.69;51.87
35519;BME280;21627;48.216;16.482;2023-04-07T00:22:50;99825.31;;;5.67;52.32
35519;BME280;21627;48.216;16.482;2023-04-07T00:25:17;99832.13;;;5.64;52.01
35519;BME280;21627;48.216;16.482;2023-04-07T00:27:44;99831.16;;;5.59;51.98
35519;BME280;21627;48.216;16.482;2023-04-07T00:30:11;99821.94;;;5.69;52.31
35519;BME280;21627;48.216;16.482;2023-04-07T00:32:39;99821.97;;;5.71;52.30
35519;BME280;21627;48.216;16.482;2023-04-07T00:35:06;99828.63;;;5.61;52.59
35519;BME280;21627;48.216;16.482;2023-04-07T00:37:33;99826.91;;;5.61;52.68
35519;BME280;21627;48.216;16.482;2023-04-07T00:40:01;99825.19;;;5.60;51.76
35519;BME280;21627;48.216;16.482;2023-04-07T00:42:28;99831.94;;;5.55;52.41
35519;BME280;21627;48.216;16.482;2023-04-07T00:44:56;99821.94;;;5.69;51.57
35519;BME280;21627;48.216;16.482;2023-04-07T00:47:23;99823.38;;;5.56;52.23
35519;BME280;21627;48.216;16.482;2023-04-07T00:49:50;99813.97;;;5.55;52.54
35519;BME280;21627;48.216;16.482;2023-04-07T00:52:18;99813.16;;;5.58;51.58
35519;BME280;21627;48.216;16.482;2023-04-07T00:54:54;99812.31;;;5.59;52.49
35519;BME280;21627;48.216;16.482;2023-04-07T00:57:22;99809.66;;;5.54;52.65
35519;BME280;21627;48.216;16.482;2023-04-07T00:59:50;99814.97;;;5.62;51.89
35519;BME280;21627;48.216;16.482;2023-04-07T01:02:35;99809.69;;;5.56;51.86
35519;BME280;21627;48.216;16.482;2023-04-07T01:05:30;99809.66;;;5.54;52.08
35519;BME280;21627;48.216;16.482;2023-04-07T01:08:16;99805.31;;;5.50;51.81
35519;BME280;21627;48.216;16.482;2023-04-07T01:11:02;99801.00;;;5.49;52.45
35519;BME280;21627;48.216;16.482;2023-04-07T01:13:51;99795.88;;;5.48;51.66
35519;BME280;21627;48.216;16.482;2023-04-07T01:16:26;99790.94;;;5.57;51.18
35519;BME280;21627;48.216;16.482;2023-04-07T01:19:42;99790.75;;;5.49;51.66
35519;BME280;21627;48.216;16.482;2023-04-07T01:22:19;99789.84;;;5.46;51.65
35519;BME280;21627;48.216;16.482;2023-04-07T01:25:02;99788.97;;;5.47;52.09
35519;BME280;21627;48.216;16.482;2023-04-07T01:27:57;99787.31;;;5.47;51.79
35519;BME280;21627;48.216;16.482;2023-04-07T01:30:29;99789.72;;;5.41;51.58
35519;BME280;21627;48.216;16.482;2023-04-07T01:32:59;99782.09;;;5.44;51.76
35519;BME280;21627;48.216;16.482;2023-04-07T01:35:33;99790.47;;;5.35;52.54
35519;BME280;21627;48.216;16.482;2023-04-07T01:38:02;99787.06;;;5.36;52.34
35519;BME280;21627;48.216;16.482;2023-04-07T01:40:33;99792.44;;;5.47;51.49
35519;BME280;21627;48.216;16.482;2023-04-07T01:43:01;99782.09;;;5.44;51.50
35519;BME280;21627;48.216;16.482;2023-04-07T01:45:29;99781.06;;;5.34;52.21
35519;BME280;21627;48.216;16.482;2023-04-07T01:47:58;99793.94;;;5.37;52.35
35519;BME280;21627;48.216;16.482;2023-04-07T01:50:27;99785.44;;;5.40;51.66
35519;BME280;21627;48.216;16.482;2023-04-07T01:52:56;99781.97;;;5.38;51.15
35519;BME280;21627;48.216;16.482;2023-04-07T01:55:24;99787.94;;;5.37;51.38
35519;BME280;21627;48.216;16.482;2023-04-07T01:57:54;99792.94;;;5.31;51.98
35519;BME280;21627;48.216;16.482;2023-04-07T02:00:21;99783.53;;;5.31;51.82
35519;BME280;21627;48.216;16.482;2023-04-07T02:02:53;99785.19;;;5.28;52.05
35519;BME280;21627;48.216;16.482;2023-04-07T02:05:27;99770.63;;;5.27;52.51
35519;BME280;21627;48.216;16.482;2023-04-07T02:08:01;99787.75;;;5.28;52.45
35519;BME280;21627;48.216;16.482;2023-04-07T02:10:33;99779.88;;;5.20;52.83
35519;BME280;21627;48.216;16.482;2023-04-07T02:13:04;99783.38;;;5.24;52.43
35519;BME280;21627;48.216;16.482;2023-04-07T02:15:32;99779.09;;;5.23;52.41
35519;BME280;21627;48.216;16.482;2023-04-07T02:18:01;99774.00;;;5.24;52.25
35519;BME280;21627;48.216;16.482;2023-04-07T02:20:29;99771.13;;;5.10;52.60
35519;BME280;21627;48.216;16.482;2023-04-07T02:22:57;99780.69;;;5.17;52.90
35519;BME280;21627;48.216;16.482;2023-04-07T02:25:26;99784.97;;;5.18;52.41
35519;BME280;21627;48.216;16.482;2023-04-07T02:27:55;99779.78;;;5.15;53.04
35519;BME280;21627;48.216;16.482;2023-04-07T02:30:23;99787.47;;;5.15;53.19
35519;BME280;21627;48.216;16.482;2023-04-07T02:32:51;99783.13;;;5.13;53.25
35519;BME280;21627;48.216;16.482;2023-04-07T02:35:19;99775.22;;;5.04;52.92
35519;BME280;21627;48.216;16.482;2023-04-07T02:37:47;99777.78;;;5.04;53.01
35519;BME280;21627;48.216;16.482;2023-04-07T02:40:15;99766.50;;;4.94;54.01
35519;BME280;21627;48.216;16.482;2023-04-07T02:42:42;99771.84;;;5.05;53.60
35519;BME280;21627;48.216;16.482;2023-04-07T02:45:10;99777.56;;;4.93;53.34
35519;BME280;21627;48.216;16.482;2023-04-07T02:47:38;99781.75;;;4.89;54.06
35519;BME280;21627;48.216;16.482;2023-04-07T02:50:06;99757.81;;;4.89;54.06
35519;BME280;21627;48.216;16.482;2023-04-07T02:52:33;99768.34;;;5.01;54.12
35519;BME280;21627;48.216;16.482;2023-04-07T02:55:00;99763.78;;;4.88;54.19
35519;BME280;21627;48.216;16.482;2023-04-07T02:57:28;99772.38;;;4.90;54.38
35519;BME280;21627;48.216;16.482;2023-04-07T02:59:55;99766.34;;;4.88;54.07
35519;BME280;21627;48.216;16.482;2023-04-07T03:02:24;99767.97;;;4.84;54.80
35519;BME280;21627;48.216;16.482;2023-04-07T03:04:51;99771.34;;;4.83;54.65
35519;BME280;21627;48.216;16.482;2023-04-07T03:07:19;99773.75;;;4.75;54.92
35519;BME280;21627;48.216;16.482;2023-04-07T03:09:46;99766.09;;;4.77;55.10
35519;BME280;21627;48.216;16.482;2023-04-07T03:12:13;99765.13;;;4.72;55.84
35519;BME280;21627;48.216;16.482;2023-04-07T03:14:40;99756.34;;;4.62;55.91
35519;BME280;21627;48.216;16.482;2023-04-07T03:17:07;99761.44;;;4.61;56.17
35519;BME280;21627;48.216;16.482;2023-04-07T03:19:35;99763.06;;;4.57;55.81
35519;BME280;21627;48.216;16.482;2023-04-07T03:22:02;99750.03;;;4.48;56.19
35519;BME280;21627;48.216;16.482;2023-04-07T03:24:29;99765.47;;;4.51;56.07
35519;BME280;21627;48.216;16.482;2023-04-07T03:26:57;99763.69;;;4.48;56.09
35519;BME280;21627;48.216;16.482;2023-04-07T03:29:24;99758.56;;;4.48;56.60
35519;BME280;21627;48.216;16.482;2023-04-07T03:31:51;99752.44;;;4.42;56.31
35519;BME280;21627;48.216;16.482;2023-04-07T03:34:18;99754.16;;;4.41;57.03
35519;BME280;21627;48.216;16.482;2023-04-07T03:36:45;99750.88;;;4.48;56.55
35519;BME280;21627;48.216;16.482;2023-04-07T03:39:12;99745.56;;;4.39;56.60
35519;BME280;21627;48.216;16.482;2023-04-07T03:41:40;99761.97;;;4.47;57.02
35519;BME280;21627;48.216;16.482;2023-04-07T03:44:07;99747.22;;;4.37;57.75
35519;BME280;21627;48.216;16.482;2023-04-07T03:46:34;99754.34;;;4.49;57.24
35519;BME280;21627;48.216;16.482;2023-04-07T03:49:01;99749.22;;;4.49;56.24
35519;BME280;21627;48.216;16.482;2023-04-07T03:51:28;99746.75;;;4.53;55.63
35519;BME280;21627;48.216;16.482;2023-04-07T03:53:55;99753.56;;;4.53;55.85
35519;BME280;21627;48.216;16.482;2023-04-07T03:56:22;99739.91;;;4.52;55.35
35519;BME280;21627;48.216;16.482;2023-04-07T03:58:50;99739.84;;;4.49;55.86
35519;BME280;21627;48.216;16.482;2023-04-07T04:01:18;99750.25;;;4.57;55.76
35519;BME280;21627;48.216;16.482;2023-04-07T04:03:46;99758.25;;;4.71;55.04
35519;BME280;21627;48.216;16.482;2023-04-07T04:06:13;99758.91;;;4.62;55.19
35519;BME280;21627;48.216;16.482;2023-04-07T04:08:40;99758.00;;;4.59;55.96
35519;BME280;21627;48.216;16.482;2023-04-07T04:11:07;99756.97;;;4.53;56.36
35519;BME280;21627;48.216;16.482;2023-04-07T04:13:34;99746.78;;;4.55;56.08
35519;BME280;21627;48.216;16.482;2023-04-07T04:16:02;99751.72;;;4.47;55.93
35519;BME280;21627;48.216;16.482;2023-04-07T04:18:29;99738.06;;;4.47;56.36
35519;BME280;21627;48.216;16.482;2023-04-07T04:20:56;99751.06;;;4.54;55.37
35519;BME280;21627;48.216;16.482;2023-04-07T04:23:23;99746.78;;;4.55;55.72
35519;BME280;21627;48.216;16.482;2023-04-07T04:25:51;99750.88;;;4.48;56.50
35519;BME280;21627;48.216;16.482;2023-04-07T04:28:18;99750.19;;;4.54;56.28
35519;BME280;21627;48.216;16.482;2023-04-07T04:30:45;99748.44;;;4.51;56.91
35519;BME280;21627;48.216;16.482;2023-04-07T04:33:12;99746.78;;;4.55;56.41
35519;BME280;21627;48.216;16.482;2023-04-07T04:35:39;99741.56;;;4.50;56.19
35519;BME280;21627;48.216;16.482;2023-04-07T04:38:07;99751.97;;;4.58;56.54
35519;BME280;21627;48.216;16.482;2023-04-07T04:40:34;99740.25;;;4.66;55.67
35519;BME280;21627;48.216;16.482;2023-04-07T04:43:01;99743.38;;;4.56;55.90
35519;BME280;21627;48.216;16.482;2023-04-07T04:45:32;99739.94;;;4.54;56.41
35519;BME280;21627;48.216;16.482;2023-04-07T04:48:00;99739.94;;;4.54;55.61
35519;BME280;21627;48.216;16.482;2023-04-07T04:50:27;99746.03;;;4.59;56.33
35519;BME280;21627;48.216;16.482;2023-04-07T04:52:54;99740.94;;;4.61;56.29
35519;BME280;21627;48.216;16.482;2023-04-07T04:55:21;99740.31;;;4.71;55.34
35519;BME280;21627;48.216;16.482;2023-04-07T04:57:48;99741.13;;;4.68;55.64
35519;BME280;21627;48.216;16.482;2023-04-07T05:00:16;99734.03;;;4.57;56.04
35519;BME280;21627;48.216;16.482;2023-04-07T05:02:43;99745.38;;;4.66;56.05
35519;BME280;21627;48.216;16.482;2023-04-07T05:05:12;99738.59;;;4.70;55.59
35519;BME280;21627;48.216;16.482;2023-04-07T05:07:40;99744.75;;;4.78;55.70
35519;BME280;21627;48.216;16.482;2023-04-07T05:10:08;99742.94;;;4.72;56.02
35519;BME280;21627;48.216;16.482;2023-04-07T05:12:35;99748.91;;;4.73;55.64
35519;BME280;21627;48.216;16.482;2023-04-07T05:15:03;99750.00;;;4.83;57.63
35519;BME280;21627;48.216;16.482;2023-04-07T05:17:30;99748.28;;;4.83;55.96
35519;BME280;21627;48.216;16.482;2023-04-07T05:19:57;99744.94;;;4.84;55.62
35519;BME280;21627;48.216;16.482;2023-04-07T05:22:24;99739.88;;;4.87;55.35
35519;BME280;21627;48.216;16.482;2023-04-07T05:24:52;99743.34;;;4.91;55.63
35519;BME280;21627;48.216;16.482;2023-04-07T05:27:19;99746.88;;;4.94;55.00
35519;BME280;21627;48.216;16.482;2023-04-07T05:29:46;99742.66;;;4.98;55.11
35519;BME280;21627;48.216;16.482;2023-04-07T05:32:13;99741.03;;;5.02;55.21
35519;BME280;21627;48.216;16.482;2023-04-07T05:34:40;99736.72;;;5.01;54.50
35519;BME280;21627;48.216;16.482;2023-04-07T05:37:07;99742.81;;;5.04;53.99
35519;BME280;21627;48.216;16.482;2023-04-07T05:39:34;99739.69;;;5.19;54.04
35519;BME280;21627;48.216;16.482;2023-04-07T05:42:02;99739.44;;;5.07;54.59
35519;BME280;21627;48.216;16.482;2023-04-07T05:44:29;99738.81;;;5.18;54.19
35519;BME280;21627;48.216;16.482;2023-04-07T05:46:56;99744.00;;;5.21;55.00
35519;BME280;21627;48.216;16.482;2023-04-07T05:49:23;99754.38;;;5.26;54.80
35519;BME280;21627;48.216;16.482;2023-04-07T05:51:51;99748.69;;;5.41;55.00
35519;BME280;21627;48.216;16.482;2023-04-07T05:54:18;99743.72;;;5.47;54.42
35519;BME280;21627;48.216;16.482;2023-04-07T05:56:45;99742.88;;;5.48;55.08
35519;BME280;21627;48.216;16.482;2023-04-07T05:59:12;99750.75;;;5.57;54.27
35519;BME280;21627;48.216;16.482;2023-04-07T06:01:39;99742.28;;;5.61;52.50
35519;BME280;21627;48.216;16.482;2023-04-07T06:04:07;99748.19;;;5.57;53.61
35519;BME280;21627;48.216;16.482;2023-04-07T06:06:34;99756.06;;;5.67;53.64
35519;BME280;21627;48.216;16.482;2023-04-07T06:09:01;99756.03;;;5.65;54.48
35519;BME280;21627;48.216;16.482;2023-04-07T06:11:28;99757.81;;;5.68;53.69
35519;BME280;21627;48.216;16.482;2023-04-07T06:13:55;99763.94;;;5.76;55.15
35519;BME280;21627;48.216;16.482;2023-04-07T06:16:22;99751.88;;;5.70;54.01
35519;BME280;21627;48.216;16.482;2023-04-07T06:18:49;99756.38;;;5.83;54.02
35519;BME280;21627;48.216;16.482;2023-04-07T06:21:17;99759.94;;;5.90;53.04
35519;BME280;21627;48.216;16.482;2023-04-07T06:23:44;99760.00;;;5.93;53.43
35519;BME280;21627;48.216;16.482;2023-04-07T06:26:11;99766.16;;;6.00;53.09
35519;BME280;21627;48.216;16.482;2023-04-07T06:28:39;99752.59;;;6.09;51.89
35519;BME280;21627;48.216;16.482;2023-04-07T06:31:07;99767.25;;;6.14;52.66
35519;BME280;21627;48.216;16.482;2023-04-07T06:33:34;99746.63;;;6.10;52.55
35519;BME280;21627;48.216;16.482;2023-04-07T06:36:02;99756.38;;;6.27;52.12
35519;BME280;21627;48.216;16.482;2023-04-07T06:38:29;99759.94;;;6.37;51.01
35519;BME280;21627;48.216;16.482;2023-04-07T06:40:56;99761.81;;;6.47;52.22
35519;BME280;21627;48.216;16.482;2023-04-07T06:43:23;99762.06;;;6.61;51.76
35519;BME280;21627;48.216;16.482;2023-04-07T06:45:50;99756.19;;;6.70;50.34
35519;BME280;21627;48.216;16.482;2023-04-07T06:48:17;99762.38;;;6.83;49.75
35519;BME280;21627;48.216;16.482;2023-04-07T06:50:51;99765.09;;;6.90;51.57
35519;BME280;21627;48.216;16.482;2023-04-07T06:53:18;99765.22;;;7.00;51.80
35519;BME280;21627;48.216;16.482;2023-04-07T06:55:45;99764.50;;;7.10;50.64
35519;BME280;21627;48.216;16.482;2023-04-07T06:58:12;99762.09;;;7.22;49.53
35519;BME280;21627;48.216;16.482;2023-04-07T07:00:40;99758.78;;;7.29;50.69
35519;BME280;21627;48.216;16.482;2023-04-07T07:03:07;99752.78;;;7.30;50.00
35519;BME280;21627;48.216;16.482;2023-04-07T07:05:34;99742.59;;;7.36;50.39
35519;BME280;21627;48.216;16.482;2023-04-07T07:08:02;99752.03;;;7.41;49.96
35519;BME280;21627;48.216;16.482;2023-04-07T07:10:29;99745.31;;;7.49;49.74
35519;BME280;21627;48.216;16.482;2023-04-07T07:12:56;99753.19;;;7.61;49.75
35519;BME280;21627;48.216;16.482;2023-04-07T07:15:23;99761.06;;;7.75;51.01
35519;BME280;21627;48.216;16.482;2023-04-07T07:17:50;99762.00;;;7.82;50.04
35519;BME280;21627;48.216;16.482;2023-04-07T07:20:18;99764.66;;;7.91;49.94
35519;BME280;21627;48.216;16.482;2023-04-07T07:22:45;99756.13;;;7.95;48.97
35519;BME280;21627;48.216;16.482;2023-04-07T07:25:12;99763.03;;;7.99;48.34
35519;BME280;21627;48.216;16.482;2023-04-07T07:27:40;99765.63;;;8.00;47.89
35519;BME280;21627;48.216;16.482;2023-04-07T07:30:07;99765.63;;;7.99;48.71
35519;BME280;21627;48.216;16.482;2023-04-07T07:32:34;99754.44;;;7.97;47.86
35519;BME280;21627;48.216;16.482;2023-04-07T07:35:02;99773.41;;;8.05;47.92
35519;BME280;21627;48.216;16.482;2023-04-07T07:37:29;99768.22;;;8.03;48.47
35519;BME280;21627;48.216;16.482;2023-04-07T07:39:56;99773.38;;;8.03;47.69
35519;BME280;21627;48.216;16.482;2023-04-07T07:42:23;99770.84;;;8.07;47.73
35519;BME280;21627;48.216;16.482;2023-04-07T07:44:50;99779.47;;;8.10;48.27
35519;BME280;21627;48.216;16.482;2023-04-07T07:47:17;99776.09;;;8.17;48.36
35519;BME280;21627;48.216;16.482;2023-04-07T07:49:48;99777.78;;;8.15;47.29
35519;BME280;21627;48.216;16.482;2023-04-07T07:52:15;99773.53;;;8.20;47.57
35519;BME280;21627;48.216;16.482;2023-04-07T07:54:42;99777.06;;;8.29;47.34
35519;BME280;21627;48.216;16.482;2023-04-07T07:57:09;99777.97;;;8.34;47.69
35519;BME280;21627;48.216;16.482;2023-04-07T07:59:37;99787.53;;;8.44;47.21
35519;BME280;21627;48.216;16.482;2023-04-07T08:02:07;99777.84;;;8.20;46.12
35519;BME280;21627;48.216;16.482;2023-04-07T08:04:36;99782.94;;;8.15;46.79
35519;BME280;21627;48.216;16.482;2023-04-07T08:07:03;99783.84;;;8.20;47.65
35519;BME280;21627;48.216;16.482;2023-04-07T08:09:30;99779.63;;;8.24;48.37
35519;BME280;21627;48.216;16.482;2023-04-07T08:11:58;99788.38;;;8.40;47.92
35519;BME280;21627;48.216;16.482;2023-04-07T08:14:25;99797.13;;;8.57;47.49
35519;BME280;21627;48.216;16.482;2023-04-07T08:16:52;99796.31;;;8.64;47.40
35519;BME280;21627;48.216;16.482;2023-04-07T08:19:19;99797.22;;;8.70;48.01
35519;BME280;21627;48.216;16.482;2023-04-07T08:21:46;99782.66;;;8.76;47.42
35519;BME280;21627;48.216;16.482;2023-04-07T08:24:14;99781.88;;;8.86;47.68
35519;BME280;21627;48.216;16.482;2023-04-07T08:26:41;99788.84;;;9.01;46.76
35519;BME280;21627;48.216;16.482;2023-04-07T08:29:08;99791.41;;;8.95;46.97
35519;BME280;21627;48.216;16.482;2023-04-07T08:31:35;99785.38;;;8.93;47.04
35519;BME280;21627;48.216;16.482;2023-04-07T08:34:02;99791.47;;;9.09;46.09
35519;BME280;21627;48.216;16.482;2023-04-07T08:36:29;99783.72;;;9.04;46.15
35519;BME280;21627;48.216;16.482;2023-04-07T08:38:57;99785.34;;;8.92;46.88
35519;BME280;21627;48.216;16.482;2023-04-07T08:41:32;99787.13;;;8.99;47.33
35519;BME280;21627;48.216;16.482;2023-04-07T08:44:03;99796.56;;;8.95;47.80
35519;BME280;21627;48.216;16.482;2023-04-07T08:46:32;99781.84;;;8.83;47.81
35519;BME280;21627;48.216;16.482;2023-04-07T08:49:00;99787.00;;;8.82;47.76
35519;BME280;21627;48.216;16.482;2023-04-07T08:51:30;99787.84;;;8.81;47.85
35519;BME280;21627;48.216;16.482;2023-04-07T08:54:12;99783.44;;;8.66;47.40
35519;BME280;21627;48.216;16.482;2023-04-07T08:56:42;99788.63;;;8.68;46.30
35519;BME280;21627;48.216;16.482;2023-04-07T08:59:12;99784.25;;;8.60;46.64
35519;BME280;21627;48.216;16.482;2023-04-07T09:01:40;99783.41;;;8.63;47.20
35519;BME280;21627;48.216;16.482;2023-04-07T09:04:09;99771.38;;;8.60;47.42
35519;BME280;21627;48.216;16.482;2023-04-07T09:06:37;99775.75;;;8.71;46.77
35519;BME280;21627;48.216;16.482;2023-04-07T09:09:04;99769.72;;;8.72;46.43
35519;BME280;21627;48.216;16.482;2023-04-07T09:11:38;99771.50;;;8.76;46.38
35519;BME280;21627;48.216;16.482;2023-04-07T09:14:09;99772.28;;;8.69;45.41
35519;BME280;21627;48.216;16.482;2023-04-07T09:16:36;99774.81;;;8.62;45.45
35519;BME280;21627;48.216;16.482;2023-04-07T09:19:04;99771.38;;;8.63;46.64
35519;BME280;21627;48.216;16.482;2023-04-07T09:21:51;99775.75;;;8.74;46.19
35519;BME280;21627;48.216;16.482;2023-04-07T09:24:28;99764.66;;;8.81;46.78
35519;BME280;21627;48.216;16.482;2023-04-07T09:27:13;99773.25;;;8.80;45.18
35519;BME280;21627;48.216;16.482;2023-04-07T09:29:46;99766.38;;;8.83;45.32
35519;BME280;21627;48.216;16.482;2023-04-07T09:32:35;99761.34;;;8.99;47.48
35519;BME280;21627;48.216;16.482;2023-04-07T09:35:08;99763.91;;;9.02;46.30
35519;BME280;21627;48.216;16.482;2023-04-07T09:37:36;99763.00;;;8.94;45.55
35519;BME280;21627;48.216;16.482;2023-04-07T09:40:04;99769.00;;;8.88;47.43
35519;BME280;21627;48.216;16.482;2023-04-07T09:42:32;99764.72;;;8.90;47.17
35519;BME280;21627;48.216;16.482;2023-04-07T09:45:00;99762.09;;;8.82;46.18
35519;BME280;21627;48.216;16.482;2023-04-07T09:47:29;99764.63;;;8.79;47.32
35519;BME280;21627;48.216;16.482;2023-04-07T09:49:57;99763.84;;;8.88;48.64
35519;BME280;21627;48.216;16.482;2023-04-07T09:52:50;99770.72;;;8.89;46.99
35519;BME280;21627;48.216;16.482;2023-04-07T09:55:21;99765.63;;;8.98;46.95
35519;BME280;21627;48.216;16.482;2023-04-07T09:57:50;99757.84;;;8.94;46.82
35519;BME280;21627;48.216;16.482;2023-04-07T10:00:17;99751.00;;;8.99;47.99
35519;BME280;21627;48.216;16.482;2023-04-07T10:02:45;99770.81;;;9.04;47.11
35519;BME280;21627;48.216;16.482;2023-04-07T10:05:12;99765.69;;;9.07;46.57
35519;BME280;21627;48.216;16.482;2023-04-07T10:07:40;99761.38;;;9.05;46.72
35519;BME280;21627;48.216;16.482;2023-04-07T10:10:09;99762.31;;;9.16;47.17
35519;BME280;21627;48.216;16.482;2023-04-07T10:12:37;99743.38;;;9.14;46.83
35519;BME280;21627;48.216;16.482;2023-04-07T10:15:05;99750.25;;;9.17;45.66
35519;BME280;21627;48.216;16.482;2023-04-07T10:17:35;99757.16;;;9.19;46.87
35519;BME280;21627;48.216;16.482;2023-04-07T10:20:04;99749.44;;;9.22;47.34
35519;BME280;21627;48.216;16.482;2023-04-07T10:22:34;99749.41;;;9.13;47.54
35519;BME280;21627;48.216;16.482;2023-04-07T10:25:10;99752.03;;;9.27;47.40
35519;BME280;21627;48.216;16.482;2023-04-07T10:27:53;99751.94;;;9.05;46.77
35519;BME280;21627;48.216;16.482;2023-04-07T10:30:30;99750.19;;;9.03;48.56
35519;BME280;21627;48.216;16.482;2023-04-07T10:32:58;99745.88;;;8.97;47.71
35519;BME280;21627;48.216;16.482;2023-04-07T10:35:25;99742.41;;;8.98;47.83
35519;BME280;21627;48.216;16.482;2023-04-07T10:40:34;99748.47;;;9.03;47.40
35519;BME280;21627;48.216;16.482;2023-04-07T10:43:03;99745.13;;;9.15;47.91
35519;BME280;21627;48.216;16.482;2023-04-07T10:48:18;99734.84;;;9.26;47.40
35519;BME280;21627;48.216;16.482;2023-04-07T10:51:14;99742.59;;;9.27;47.78
35519;BME280;21627;48.216;16.482;2023-04-07T10:54:22;99751.22;;;9.36;46.97
35519;BME280;21627;48.216;16.482;2023-04-07T10:59:30;99749.56;;;9.48;46.61
35519;BME280;21627;48.216;16.482;2023-04-07T11:04:43;99742.72;;;9.60;46.71
35519;BME280;21627;48.216;16.482;2023-04-07T11:07:13;99745.31;;;9.61;47.10
35519;BME280;21627;48.216;16.482;2023-04-07T11:09:42;99737.59;;;9.63;46.37
35519;BME280;21627;48.216;16.482;2023-04-07T11:12:22;99738.47;;;9.71;47.42
35519;BME280;21627;48.216;16.482;2023-04-07T11:14:49;99741.13;;;10.00;47.06
35519;BME280;21627;48.216;16.482;2023-04-07T11:17:17;99730.81;;;10.09;46.59
35519;BME280;21627;48.216;16.482;2023-04-07T11:19:52;99738.56;;;10.17;45.85
35519;BME280;21627;48.216;16.482;2023-04-07T11:22:19;99735.16;;;10.35;46.27
35519;BME280;21627;48.216;16.482;2023-04-07T11:24:49;99732.59;;;10.55;45.31
35519;BME280;21627;48.216;16.482;2023-04-07T11:27:16;99733.44;;;10.60;44.89
35519;BME280;21627;48.216;16.482;2023-04-07T11:29:43;99736.03;;;10.65;44.57
35519;BME280;21627;48.216;16.482;2023-04-07T11:32:11;99724.84;;;10.61;44.38
35519;BME280;21627;48.216;16.482;2023-04-07T11:34:39;99734.31;;;10.70;43.86
35519;BME280;21627;48.216;16.482;2023-04-07T11:37:24;99730.00;;;10.79;45.02
35519;BME280;21627;48.216;16.482;2023-04-07T11:39:57;99725.66;;;10.83;46.10
35519;BME280;21627;48.216;16.482;2023-04-07T11:42:38;99737.72;;;10.90;44.86
35519;BME280;21627;48.216;16.482;2023-04-07T11:45:16;99730.84;;;10.85;45.01
35519;BME280;21627;48.216;16.482;2023-04-07T11:47:44;99727.34;;;11.10;45.39
35519;BME280;21627;48.216;16.482;2023-04-07T11:50:11;99726.44;;;11.23;44.64
35519;BME280;21627;48.216;16.482;2023-04-07T11:52:47;99732.41;;;11.45;44.77
35519;BME280;21627;48.216;16.482;2023-04-07T11:55:22;99726.34;;;11.50;44.96
35519;BME280;21627;48.216;16.482;2023-04-07T11:57:52;99722.91;;;11.43;44.32
35519;BME280;21627;48.216;16.482;2023-04-07T12:00:20;99722.81;;;11.61;44.78
35519;BME280;21627;48.216;16.482;2023-04-07T12:02:47;99716.84;;;11.52;43.49
35519;BME280;21627;48.216;16.482;2023-04-07T12:05:14;99710.78;;;11.56;44.75
35519;BME280;21627;48.216;16.482;2023-04-07T12:07:52;99707.41;;;11.40;43.71
35519;BME280;21627;48.216;16.482;2023-04-07T12:10:21;99708.31;;;11.28;44.50
35519;BME280;21627;48.216;16.482;2023-04-07T12:12:49;99712.63;;;11.18;43.65
35519;BME280;21627;48.216;16.482;2023-04-07T12:15:17;99710.13;;;11.00;44.47
35519;BME280;21627;48.216;16.482;2023-04-07T12:17:46;99713.59;;;10.85;46.14
35519;BME280;21627;48.216;16.482;2023-04-07T12:20:15;99710.09;;;11.06;45.53
35519;BME280;21627;48.216;16.482;2023-04-07T12:22:42;99703.25;;;10.76;47.08
35519;BME280;21627;48.216;16.482;2023-04-07T12:25:09;99705.03;;;10.61;46.51
35519;BME280;21627;48.216;16.482;2023-04-07T12:27:36;99703.25;;;10.73;46.40
35519;BME280;21627;48.216;16.482;2023-04-07T12:30:11;99704.13;;;10.82;46.42
35519;BME280;21627;48.216;16.482;2023-04-07T12:32:40;99690.34;;;10.74;47.53
35519;BME280;21627;48.216;16.482;2023-04-07T12:35:07;99692.03;;;10.91;47.97
35519;BME280;21627;48.216;16.482;2023-04-07T12:37:34;99705.00;;;10.72;49.91
35519;BME280;21627;48.216;16.482;2023-04-07T12:40:01;99710.16;;;10.72;50.19
35519;BME280;21627;48.216;16.482;2023-04-07T12:42:29;99705.88;;;10.64;49.64
35519;BME280;21627;48.216;16.482;2023-04-07T12:44:56;99705.03;;;10.42;50.09
35519;BME280;21627;48.216;16.482;2023-04-07T12:47:23;99716.22;;;10.40;50.73
35519;BME280;21627;48.216;16.482;2023-04-07T12:49:50;99698.09;;;10.24;49.77
35519;BME280;21627;48.216;16.482;2023-04-07T12:52:17;99716.19;;;10.19;49.95
35519;BME280;21627;48.216;16.482;2023-04-07T12:54:44;99725.63;;;9.99;50.27
35519;BME280;21627;48.216;16.482;2023-04-07T12:57:11;99715.25;;;9.85;50.61
35519;BME280;21627;48.216;16.482;2023-04-07T12:59:39;99716.09;;;9.82;50.57
35519;BME280;21627;48.216;16.482;2023-04-07T13:02:07;99700.59;;;9.74;50.53
35519;BME280;21627;48.216;16.482;2023-04-07T13:04:34;99710.03;;;9.65;51.02
35519;BME280;21627;48.216;16.482;2023-04-07T13:07:03;99716.06;;;9.64;51.03
35519;BME280;21627;48.216;16.482;2023-04-07T13:09:30;99703.16;;;9.62;51.17
35519;BME280;21627;48.216;16.482;2023-04-07T13:11:57;99710.06;;;9.71;51.27
35519;BME280;21627;48.216;16.482;2023-04-07T13:14:26;99701.50;;;9.84;51.80
35519;BME280;21627;48.216;16.482;2023-04-07T13:16:53;99702.34;;;9.83;51.63
35519;BME280;21627;48.216;16.482;2023-04-07T13:19:20;99707.56;;;9.95;51.76
35519;BME280;21627;48.216;16.482;2023-04-07T13:21:47;99701.50;;;9.83;51.89